Warning: Javascript must be enabled to use all the features on this page!


Page Loading - Please Wait...

* We've detected you're using a mobile device. Find our Next Generation Station Page here.
Click to hideNews Bulletins

Peak Streamflow for Georgia

Click to hide state-specific text

Questions about data? Click here.


USGS 02191300 BROAD RIVER ABOVE CARLTON, GA

Madison County, Georgia
Hydrologic Unit Code 03060104
Latitude  34°04'24", Longitude  83°00'12" NAD83
Drainage area 760  square miles
Gage datum 406.6 feet above NAVD88
Output formats
Table
Graph
Tab-separated file
peakfq (watstore) format
Reselect output format
Water
Year
Date Gage
Height
(feet)
Stream-
flow
(cfs)
1898 1898-09-02 20.003 26,600
1899 1899-02-27 15.803 19,500
1900 1900-02-13 22.703 31,600
1901 1901-09-18 14.803 17,800
1902 1902-02-28 28.203 43,200
1903 1903-03-24 21.703 29,700
1904 1904-08-09 10.403 10,400
1905 1905-02-21 9.003 8,220
1906 1906-01-23 19.003 24,900
1907 1907-04-24 7.603 6,200
1908 1908-08-25 39.003 70,000
1909 1909-06-04 12.703 14,200
1910 1910-08-31 16.403 20,500
1911 1911-04-08 8.503 5,640
1912 1912-03-15 28.003 42,800
1913 1913-03-15 22.003 30,300
1914 1913-12-29 10.803 11,000
1915 1914-10-15 16.103 20,000
1916 1915-12-18 18.403 23,900
1917 1917-03-27 13.303 15,200
1918 1918-08-03 12.006 5,400
1920 1919-12-10 28.20 29,500
1921 1921-02-10 23.70 20,100
1922 1922-02-15 17.80 11,000
1923 1923-05-30 19.10 12,500
1924 1923-12-05 12.10 5,480
1925 1925-01-18 17.10 10,100
1926 1926-01-18 14.20 7,160
1927 1927-03-09 8.60 2,680
1928 1928-08-16 26.00 24,500
1929 1929-03-05 25.20 22,900
1930 1929-10-02 27.90 28,800
1931 1930-11-17 10.00 3,800
1932 1931-12-04 18.20 11,400
1933 1932-12-13 16.00 8,800
1934 1934-06-03 15.50 8,300
1935 1934-10-11 16.00 8,800
1936 1936-04-07 28.00 29,000
1937 1937-01-03 21.40 16,000
1938 1937-10-19 25.00 22,500
1939 1939-08-18 24.20 21,000
1940 1940-08-13 22.00 17,000
1941 1941-07-07 17.00 10,000
1942 1942-03-21 19.70 13,400
1943 1943-01-18 23.10 19,000
1944 1944-03-20 17.00 10,000
1945 1945-03-25 17.90 11,100
1946 1946-01-07 21.50 16,200
1947 1947-01-20 19.00 12,400
1948 1948-03-07 15.00 7,800
1949 1948-11-29 24.50 21,600
1950 1950-09-09 9.50 3,400
1951 1950-10-20 22.00 17,000
1952 1952-03-12 21.00 15,300
1953 1953-02-22 16.00 8,800
1954 1954-01-17 16.30 9,160
1955 1955-02-07 16.90 9,880
1956 1956-03-17 16.00 8,800
1957 1957-04-06 15.50 8,300
1958 1957-11-19 15.30 8,100
1959 1959-05-27 14.50 7,400
1960 1960-01-31 15.60 8,400
1961 1961-02-22 26.00 24,500
1962 1961-12-13 20.20 14,100
1963 1963-05-01 22.40 17,700
1964 1964-03-27 25.20 22,900
1965 1965-03-25 17.50 10,600
1966 1966-03-05 21.20 15,600
1967 1967-06-05 23.10 19,000
1968 1968-01-11 14.80 7,640
1969 1969-01-21 21.40 16,000
1970 1970-03-22 13.80 6,840
1971 1971-03-03 22.50 18,000
1972 1972-01-11 21.20 15,600
1973 1973-03-17 21.40 16,000
1974 1974-01-02 12.50 5,800
1975 1975-03-13 21.20 15,600
1976 1976-05-30 26.80 26,000
1977 1977-03-31 18.35 11,700
1978 1977-11-06 27.25 27,500
1979 1979-04-13 23.50 19,700
1980 1980-03-29 19.10 12,600
1981 1981-02-11 13.72 6,900
1982 1982-01-04 23.40 19,500
1983 1983-04-09 14.73 8,200
1984 1983-12-06   14,0002
1985 1985-02-06   10,0002
1986 1985-11-30 10.23 4,000
1987 1987-03-01 19.45 13,100
1988 1988-01-21 12.55 6,190
1989 1989-07-17 13.63 7,220
1990 1989-10-01 27.50 28,300
1991 1991-03-29   10,0002
1992 1992-08-23 18.48 12,000
1993 1992-12-17 19.02 12,700
1994 1994-08-19 19.24 13,000
1995 1995-02-17 16.16 9,370
1996 1996-03-07 23.36 19,900
1997 1997-03-01 19.37 13,200
1998 1998-02-04 25.36 25,400
1999 1999-02-01 16.46 12,400
2000 2000-03-20 10.97 6,240
2001 2001-03-15 9.72 5,400
2002 2002-09-16 8.89 4,460
2003 2003-03-21 21.45 19,300
2004 2004-09-18 16.84 12,900
2005 2005-03-28 16.33 12,300
2006 2005-12-16 8.70 4,310
2007 2007-03-02 14.29 9,610
2008 2008-03-16 8.09 3,530
2009 2009-01-07 13.83 9,070
2010 2010-01-25 18.78 15,700
2011 2011-03-10 10.40 5,280
2012 2012-01-22 8.31 3,520
2013 2013-07-07 14.78 10,200
2014 2014-01-11 18.82 15,700
2015 2015-01-05 9.71 4,780
2016 2015-11-02 17.86 14,300
2017 2017-04-06 10.27 5,350
2018 2018-04-24 11.69 6,730
2019 2019-04-20 25.37 28,300
2020 2020-02-07 24.01 25,000
?
  Peak Gage-Height Qualification Codes.
?
  Peak Streamflow Qualification Codes.